ADDS METAR Data INFO
IDs: Format: Raw Decoded Include TAF

Data at: 0330 UTC 28 Jun 2017

METAR for:KFPK (Charotte/Beach Fld, MI, US)
Text:KFPK 280315Z AUTO 17003KT 10SM CLR 12/09 A3006 RMK AO2 T01220090
Temperature: 12.2°C ( 54°F)
Dewpoint: 9.0°C ( 48°F) [RH = 81%]
Pressure (altimeter):30.06 inches Hg (1018.0 mb)
Winds:from the S (170 degrees) at 3 MPH (3 knots; 1.5 m/s)
Visibility:10 or more sm (16+ km)
Ceiling:at least 12,000 feet AGL
Clouds:sky clear below 12,000 feet AGL
QC Flag:automated observation with no human augmentation

TAF for:KFPK (Charotte/Beach Fld, MI, US)
Text:No data found

METAR for:KLAN (Lansing/Capital City, MI, US)
Text:KLAN 280253Z 23004KT 10SM CLR 16/08 A3006 RMK AO2 SLP178 T01560083 53010
Temperature: 15.6°C ( 60°F)
Dewpoint: 8.3°C ( 47°F) [RH = 62%]
Pressure (altimeter):30.06 inches Hg (1018.0 mb) [Sea level pressure: 1017.8 mb]
Winds:from the SW (230 degrees) at 5 MPH (4 knots; 2.1 m/s)
Visibility:10 or more sm (16+ km)
Ceiling:at least 12,000 feet AGL
Clouds:sky clear below 12,000 feet AGL

TAF for:KLAN (Lansing/Capital City, MI, US) issued at 2336 UTC 27 Jun 2017
Text:KLAN 272336Z 2800/2824 27010KT P6SM SCT060
Forecast period:0000 to 0600 UTC 28 June 2017
Forecast type:FROM: standard forecast or significant change
Winds:from the W (270 degrees) at 12 MPH (10 knots; 5.1 m/s)
Visibility:6 or more sm (10+ km)
Ceiling:at least 12,000 feet AGL
Clouds: scattered clouds at 6000 feet AGL
Text:FM280600 21005KT P6SM FEW250
Forecast period:0600 to 1600 UTC 28 June 2017
Forecast type:FROM: standard forecast or significant change
Winds:from the SSW (210 degrees) at 6 MPH (5 knots; 2.6 m/s)
Visibility:6 or more sm (10+ km)
Ceiling:at least 12,000 feet AGL
Clouds: few clouds at 25000 feet AGL
Text:FM281600 20015G25KT P6SM SCT050 BKN120 BKN250
Forecast period:1600 to 2000 UTC 28 June 2017
Forecast type:FROM: standard forecast or significant change
Winds:from the SSW (200 degrees) at 17 MPH (15 knots; 7.7 m/s) gusting to 29 MPH (25 knots; 12.9 m/s)
Visibility:6 or more sm (10+ km)
Ceiling:12000 feet AGL
Clouds: scattered clouds at 5000 feet AGL, broken clouds at 12000 feet AGL, broken clouds at 25000 feet AGL
Text:FM282000 18012G22KT P6SM OVC050
Forecast period:2000 UTC 28 June 2017 to 0000 UTC 29 June 2017
Forecast type:FROM: standard forecast or significant change
Winds:from the S (180 degrees) at 14 MPH (12 knots; 6.2 m/s) gusting to 25 MPH (22 knots; 11.3 m/s)
Visibility:6 or more sm (10+ km)
Ceiling:5000 feet AGL
Clouds: overcast cloud deck at 5000 feet AGL


Page loaded:  03:30 UTC  |   08:30 PM Pacific  |   09:30 PM Mountain  |   10:30 PM Central  |   11:30 PM Eastern

 

ADVISORIES

FORECASTS

FORECASTS

OBSERVATIONS

USER TOOLS

ABOUT US